Athens, New York
Current Conditions -  °F | °C
As of 1:54 PM on Thursday 23 Oct 2014 (Local Time) from KPSF Reporting Station
Overcast Overcast  
Wind Chill: 40°   Ceiling: 1300
Heat Index: 44°   Visibility: 10mi
Dew Point: 42°   Wind: 8mph
Humidity: 93%   Direction: 310°NW
Pressure: 29.73"   Gusts: NA
Location:  42.26°N, 73.81°W
Report Text: KPSF 231754Z AUTO 31007KT 10SM FEW009 OVC013 07/06 A2973 RMK AO2 SLP064 60034 T00670056 10078 20061 56003
Loading
Personal Weather Stations






























Interactive Weather Map
Tropical Storm Tracking
New forecast layout! Learn more

10-Day Weather Forecast

Advertisements
Track Severe Weather on mobile